createdAt,value
2023-03-14T00:02:02.924Z,62.22
2023-03-14T00:04:31.137Z,62.27
2023-03-14T00:07:00.161Z,62.32
2023-03-14T00:09:31.190Z,62.60
2023-03-14T00:12:00.326Z,62.49
2023-03-14T00:14:28.956Z,62.26
2023-03-14T00:17:01.572Z,62.13
2023-03-14T00:19:30.062Z,62.04
2023-03-14T00:21:58.072Z,62.32
2023-03-14T00:24:25.992Z,62.58
2023-03-14T00:26:54.725Z,62.90
2023-03-14T00:29:25.257Z,62.92
2023-03-14T00:31:54.457Z,62.57
2023-03-14T00:34:22.575Z,63.46
2023-03-14T00:36:51.068Z,63.08
2023-03-14T00:39:20.245Z,62.51
2023-03-14T00:41:48.789Z,63.15
2023-03-14T00:44:16.888Z,63.06
2023-03-14T00:46:44.810Z,62.57
2023-03-14T00:49:12.614Z,63.13
2023-03-14T00:51:40.942Z,62.64
2023-03-14T00:54:09.686Z,62.38
2023-03-14T00:56:38.595Z,62.30
2023-03-14T00:59:09.781Z,61.55
2023-03-14T01:01:40.433Z,61.31
2023-03-14T01:04:08.918Z,61.19
2023-03-14T01:06:37.849Z,61.53
2023-03-14T01:09:06.037Z,60.92
2023-03-14T01:11:38.269Z,60.59
2023-03-14T01:14:06.757Z,60.53
2023-03-14T01:16:36.345Z,60.42
2023-03-14T01:19:04.536Z,60.34
2023-03-14T01:21:34.980Z,60.54
2023-03-14T01:24:04.349Z,61.81
2023-03-14T01:26:36.863Z,61.03
2023-03-14T01:29:07.709Z,61.64
2023-03-14T01:31:37.814Z,61.74
2023-03-14T01:34:07.549Z,62.13
2023-03-14T01:36:36.249Z,61.64
2023-03-14T01:39:10.110Z,61.60
2023-03-14T01:41:38.819Z,61.49
2023-03-14T01:44:13.329Z,61.56
2023-03-14T01:46:44.562Z,62.00
2023-03-14T01:49:19.674Z,62.12
2023-03-14T01:51:58.641Z,62.42
2023-03-14T01:54:38.134Z,62.75
2023-03-14T01:57:22.332Z,62.60
2023-03-14T02:00:12.882Z,62.62
2023-03-14T02:02:51.745Z,62.09
2023-03-14T02:05:28.163Z,62.12
2023-03-14T02:08:02.014Z,62.49
2023-03-14T02:10:43.231Z,63.04
2023-03-14T02:13:12.666Z,62.36
2023-03-14T02:16:01.058Z,62.46
2023-03-14T02:18:50.348Z,62.62
2023-03-14T02:21:39.859Z,62.74
2023-03-14T02:24:36.444Z,62.66
2023-03-14T02:27:29.832Z,62.24
2023-03-14T02:30:00.923Z,62.74
2023-03-14T02:32:33.501Z,62.37
2023-03-14T02:35:12.884Z,62.26
2023-03-14T02:37:42.069Z,61.83
2023-03-14T02:40:12.697Z,62.16
2023-03-14T02:42:41.492Z,61.75
2023-03-14T02:45:13.214Z,61.84
2023-03-14T02:47:48.609Z,62.00
2023-03-14T02:50:18.537Z,61.48
2023-03-14T02:52:47.731Z,61.20
2023-03-14T02:55:15.890Z,61.03
2023-03-14T02:57:47.064Z,61.19
2023-03-14T03:00:16.214Z,61.29
2023-03-14T03:02:44.445Z,61.35
2023-03-14T03:05:13.498Z,61.09
2023-03-14T03:07:42.161Z,61.36
2023-03-14T03:10:13.102Z,60.94
2023-03-14T03:12:42.515Z,61.13
2023-03-14T03:15:10.904Z,60.85
2023-03-14T03:17:41.236Z,61.26
2023-03-14T03:20:10.779Z,61.44
2023-03-14T03:22:40.315Z,61.31
2023-03-14T03:25:09.888Z,61.73
2023-03-14T03:27:38.862Z,61.67
2023-03-14T03:30:10.547Z,61.60
2023-03-14T03:32:38.856Z,61.05
2023-03-14T03:35:08.865Z,60.70
2023-03-14T03:37:40.737Z,60.83
2023-03-14T03:40:09.509Z,60.68
2023-03-14T03:42:38.524Z,60.74
2023-03-14T03:45:10.048Z,61.48
2023-03-14T03:47:49.750Z,61.52
2023-03-14T03:50:18.381Z,60.55
2023-03-14T03:52:46.527Z,60.46
2023-03-14T03:55:14.846Z,60.70
2023-03-14T03:57:42.616Z,60.55
2023-03-14T04:00:14.126Z,60.42
2023-03-14T04:02:50.243Z,60.37
2023-03-14T04:05:20.721Z,60.56
2023-03-14T04:07:58.635Z,60.44
2023-03-14T04:10:29.686Z,60.77
2023-03-14T04:13:09.574Z,60.24
2023-03-14T04:15:40.650Z,60.50
2023-03-14T04:18:16.419Z,59.97
2023-03-14T04:20:51.647Z,59.90
2023-03-14T04:23:20.731Z,59.57
2023-03-14T04:25:53.464Z,59.78
2023-03-14T04:28:23.344Z,58.98
2023-03-14T04:30:55.369Z,58.86
2023-03-14T04:33:26.273Z,58.63
2023-03-14T04:35:58.336Z,58.51
2023-03-14T04:38:26.550Z,58.52
2023-03-14T04:40:56.803Z,58.10
2023-03-14T04:43:30.828Z,57.85
2023-03-14T04:46:08.497Z,57.47
2023-03-14T04:48:39.504Z,56.93
2023-03-14T04:51:11.971Z,56.67
2023-03-14T04:53:42.653Z,56.33
2023-03-14T04:56:18.780Z,56.50
2023-03-14T04:58:48.795Z,55.95
2023-03-14T05:01:19.118Z,55.38
2023-03-14T05:04:04.853Z,55.06
2023-03-14T05:06:52.287Z,54.84
2023-03-14T05:09:39.103Z,54.18
2023-03-14T05:12:35.188Z,54.07
2023-03-14T05:15:25.598Z,54.06
2023-03-14T05:18:24.384Z,53.25
2023-03-14T05:21:13.113Z,52.93
2023-03-14T05:24:08.751Z,51.98
2023-03-14T05:26:55.332Z,52.46
2023-03-14T05:29:49.725Z,51.37
2023-03-14T05:32:38.315Z,51.15
2023-03-14T05:35:33.268Z,51.37
2023-03-14T05:38:25.216Z,51.41
2023-03-14T05:41:12.763Z,50.31
2023-03-14T05:44:01.649Z,50.57
2023-03-14T05:47:02.016Z,50.25
2023-03-14T05:49:47.464Z,49.53
2023-03-14T05:52:39.067Z,49.47
2023-03-14T05:55:23.356Z,48.37
2023-03-14T05:58:07.130Z,47.77
2023-03-14T06:00:55.651Z,48.17
2023-03-14T06:03:47.617Z,47.82
2023-03-14T06:06:16.162Z,47.78
2023-03-14T06:08:44.390Z,47.52
2023-03-14T06:11:14.302Z,46.26
2023-03-14T06:13:44.584Z,47.24
2023-03-14T06:16:12.826Z,46.46
2023-03-14T06:18:48.207Z,46.79
2023-03-14T06:21:19.245Z,45.59
2023-03-14T06:23:48.581Z,44.97
2023-03-14T06:26:17.601Z,45.13
2023-03-14T06:28:48.342Z,45.04
2023-03-14T06:31:17.096Z,44.78
2023-03-14T06:33:54.906Z,44.68
2023-03-14T06:36:25.135Z,44.56
2023-03-14T06:38:53.092Z,44.73
2023-03-14T06:41:21.488Z,44.43
2023-03-14T06:43:55.436Z,43.44
2023-03-14T06:46:25.538Z,43.42
2023-03-14T06:48:55.031Z,43.80
2023-03-14T06:51:28.487Z,43.55
2023-03-14T06:53:59.427Z,43.74
2023-03-14T06:56:31.429Z,44.04
2023-03-14T06:59:01.595Z,44.11
2023-03-14T07:01:34.097Z,42.86
2023-03-14T07:04:11.327Z,42.72
2023-03-14T07:06:45.615Z,42.89
2023-03-14T07:09:13.575Z,42.94
2023-03-14T07:11:45.701Z,42.43
2023-03-14T07:14:14.037Z,42.49
2023-03-14T07:16:41.929Z,42.02
2023-03-14T07:19:09.846Z,41.53
2023-03-14T07:21:42.222Z,41.82
2023-03-14T07:24:14.312Z,41.63
2023-03-14T07:26:44.534Z,41.01
2023-03-14T07:29:12.876Z,41.41
2023-03-14T07:31:42.208Z,41.61
2023-03-14T07:34:10.133Z,41.63
2023-03-14T07:36:42.706Z,41.39
2023-03-14T07:39:11.620Z,41.22
2023-03-14T07:41:46.690Z,40.95
2023-03-14T07:44:42.196Z,40.49
2023-03-14T07:47:11.525Z,40.48
2023-03-14T07:49:41.085Z,40.63
2023-03-14T07:52:08.932Z,40.38
2023-03-14T07:54:38.869Z,39.47
2023-03-14T07:57:13.926Z,38.77
2023-03-14T07:59:42.024Z,39.49
2023-03-14T08:02:13.571Z,40.39
2023-03-14T08:04:41.820Z,39.59
2023-03-14T08:07:10.808Z,40.16
2023-03-14T08:09:39.684Z,39.67
2023-03-14T08:12:08.422Z,40.40
2023-03-14T08:14:37.266Z,40.37
2023-03-14T08:17:09.593Z,40.02
2023-03-14T08:19:37.814Z,40.21
2023-03-14T08:22:07.128Z,40.65
2023-03-14T08:24:36.757Z,40.70
2023-03-14T08:27:06.369Z,39.53
2023-03-14T08:29:36.312Z,40.62
2023-03-14T08:32:04.777Z,41.02
2023-03-14T08:34:34.611Z,39.99
2023-03-14T08:37:19.869Z,40.16
2023-03-14T08:39:54.872Z,40.71
2023-03-14T08:42:23.105Z,39.78
2023-03-14T08:44:52.597Z,40.41
2023-03-14T08:47:21.133Z,40.13
2023-03-14T08:49:49.704Z,40.32
2023-03-14T08:52:17.671Z,40.78
2023-03-14T08:54:45.897Z,41.06
2023-03-14T08:57:13.860Z,39.55
2023-03-14T08:59:42.258Z,39.54
2023-03-14T09:02:13.569Z,39.83
2023-03-14T09:04:41.875Z,40.35
2023-03-14T09:07:13.137Z,40.14
2023-03-14T09:09:43.263Z,39.25
2023-03-14T09:12:11.371Z,38.22
2023-03-14T09:14:44.234Z,38.45
2023-03-14T09:17:12.478Z,39.44
2023-03-14T09:19:41.565Z,38.32
2023-03-14T09:22:10.704Z,37.52
2023-03-14T09:24:40.452Z,38.25
2023-03-14T09:27:08.917Z,38.35
2023-03-14T09:29:39.292Z,38.34
2023-03-14T09:32:07.472Z,38.52
2023-03-14T09:34:38.506Z,38.21
2023-03-14T09:37:07.289Z,39.36
2023-03-14T09:39:35.745Z,40.35
2023-03-14T09:42:07.060Z,40.82
2023-03-14T09:44:37.888Z,40.41
2023-03-14T09:47:07.682Z,40.90
2023-03-14T09:49:40.795Z,40.60
2023-03-14T09:52:17.297Z,40.33
2023-03-14T09:55:05.777Z,41.31
2023-03-14T09:57:35.603Z,40.66
2023-03-14T10:00:24.282Z,40.13
2023-03-14T10:03:21.454Z,40.39
2023-03-14T10:05:50.982Z,40.98
2023-03-14T10:08:19.435Z,39.69
2023-03-14T10:10:47.331Z,39.57
2023-03-14T10:13:19.772Z,40.42
2023-03-14T10:15:57.237Z,39.25
2023-03-14T10:18:29.128Z,40.48
2023-03-14T10:21:08.153Z,39.81
2023-03-14T10:23:36.040Z,39.72
2023-03-14T10:26:15.141Z,39.57
2023-03-14T10:28:46.351Z,39.54
2023-03-14T10:31:14.698Z,38.80
2023-03-14T10:33:45.277Z,39.82
2023-03-14T10:36:18.114Z,40.56
2023-03-14T10:38:51.628Z,40.39
2023-03-14T10:41:32.179Z,39.67
2023-03-14T10:44:03.158Z,39.67
2023-03-14T10:46:35.672Z,40.42
2023-03-14T10:49:31.981Z,41.38
2023-03-14T10:52:03.731Z,40.34
2023-03-14T10:54:32.646Z,39.25
2023-03-14T10:57:01.760Z,39.16
2023-03-14T10:59:34.549Z,40.24
2023-03-14T11:02:14.692Z,38.94
2023-03-14T11:05:10.373Z,39.06
2023-03-14T11:07:43.745Z,39.11
2023-03-14T11:10:18.094Z,40.08
2023-03-14T11:12:52.104Z,39.50
2023-03-14T11:15:35.635Z,39.46
2023-03-14T11:18:23.616Z,38.76
2023-03-14T11:21:13.774Z,39.46
2023-03-14T11:23:59.998Z,38.65
2023-03-14T11:26:31.170Z,38.80
2023-03-14T11:29:00.551Z,39.07
2023-03-14T11:31:34.758Z,39.96
2023-03-14T11:34:23.554Z,38.71
2023-03-14T11:37:01.944Z,40.09
2023-03-14T11:39:36.895Z,38.39
2023-03-14T11:42:14.203Z,38.70
2023-03-14T11:44:44.858Z,39.29
2023-03-14T11:47:41.431Z,37.69
2023-03-14T11:50:24.416Z,38.41
2023-03-14T11:53:07.134Z,39.08
2023-03-14T11:55:55.143Z,38.25
2023-03-14T11:58:27.309Z,39.20
2023-03-14T12:00:57.549Z,38.33
2023-03-14T12:03:34.043Z,38.60
2023-03-14T12:06:05.165Z,39.51
2023-03-14T12:09:02.616Z,38.61
2023-03-14T12:11:34.916Z,39.45
2023-03-14T12:14:03.464Z,39.76
2023-03-14T12:16:36.578Z,38.46
2023-03-14T12:19:35.124Z,37.73
2023-03-14T12:22:30.824Z,37.32
2023-03-14T12:25:26.563Z,37.85
2023-03-14T12:27:57.381Z,36.55
2023-03-14T12:30:30.868Z,37.19
2023-03-14T12:33:19.267Z,35.76
2023-03-14T12:35:58.557Z,35.87
2023-03-14T12:38:50.905Z,35.86
2023-03-14T12:41:29.707Z,34.49
2023-03-14T12:43:57.752Z,33.65
2023-03-14T12:46:28.347Z,35.61
2023-03-14T12:49:04.604Z,34.54
2023-03-14T12:51:41.063Z,33.94
2023-03-14T12:54:15.098Z,33.00
2023-03-14T12:57:06.447Z,32.12
2023-03-14T12:59:35.363Z,34.06
2023-03-14T13:02:21.225Z,33.37
2023-03-14T13:05:12.556Z,33.03
2023-03-14T13:07:40.777Z,31.25
2023-03-14T13:10:19.687Z,31.25
2023-03-14T13:13:10.277Z,31.76
2023-03-14T13:15:45.969Z,31.33
2023-03-14T13:18:25.580Z,32.33
2023-03-14T13:21:21.039Z,30.94
2023-03-14T13:24:02.542Z,31.76
2023-03-14T13:26:35.385Z,31.66
2023-03-14T13:29:24.166Z,31.41
2023-03-14T13:32:00.057Z,31.33
2023-03-14T13:34:28.609Z,31.47
2023-03-14T13:37:00.108Z,30.93
2023-03-14T13:39:30.545Z,30.53
2023-03-14T13:42:00.170Z,28.91
2023-03-14T13:44:33.982Z,31.16
2023-03-14T13:47:02.544Z,30.58
2023-03-14T13:49:33.900Z,30.76
2023-03-14T13:52:03.198Z,29.37
2023-03-14T13:54:32.334Z,30.51
2023-03-14T13:57:06.176Z,30.70
2023-03-14T13:59:36.188Z,30.20
2023-03-14T14:02:18.689Z,30.40
2023-03-14T14:04:47.159Z,28.79
2023-03-14T14:07:19.637Z,28.51
2023-03-14T14:09:50.580Z,29.11
2023-03-14T14:12:29.387Z,28.82
2023-03-14T14:15:03.770Z,28.32
2023-03-14T14:17:44.995Z,27.47
2023-03-14T14:20:40.033Z,29.53
2023-03-14T14:23:26.374Z,28.79
2023-03-14T14:25:54.947Z,29.91
2023-03-14T14:28:31.414Z,28.21
2023-03-14T14:31:16.231Z,29.13
2023-03-14T14:33:50.685Z,29.87
2023-03-14T14:36:39.385Z,30.04
2023-03-14T14:39:33.573Z,29.88
2023-03-14T14:42:01.767Z,30.30
2023-03-14T14:44:33.009Z,30.47
2023-03-14T14:47:05.923Z,30.40
2023-03-14T14:49:34.885Z,29.90
2023-03-14T14:52:18.330Z,30.76
2023-03-14T14:54:59.812Z,31.20
2023-03-14T14:57:31.534Z,30.26
2023-03-14T15:00:07.650Z,31.24
2023-03-14T15:02:45.648Z,31.34
2023-03-14T15:05:18.546Z,32.13
2023-03-14T15:07:48.051Z,32.41
2023-03-14T15:10:42.701Z,32.99
2023-03-14T15:13:14.164Z,33.59
2023-03-14T15:15:43.378Z,34.42
2023-03-14T15:18:17.282Z,35.42
2023-03-14T15:20:45.735Z,34.85
2023-03-14T15:23:16.967Z,35.10
2023-03-14T15:25:55.569Z,36.19
2023-03-14T15:28:25.767Z,36.61
2023-03-14T15:30:55.776Z,36.84
2023-03-14T15:33:25.413Z,37.49
2023-03-14T15:35:53.712Z,37.83
2023-03-14T15:38:24.227Z,37.63
2023-03-14T15:40:56.478Z,38.12
2023-03-14T15:43:26.051Z,37.98
2023-03-14T15:45:58.505Z,38.18
2023-03-14T15:48:28.100Z,38.46
2023-03-14T15:50:56.525Z,38.81
2023-03-14T15:53:24.954Z,39.28
2023-03-14T15:55:53.194Z,40.49
2023-03-14T15:58:22.019Z,39.39
2023-03-14T16:00:50.553Z,39.65
2023-03-14T16:03:19.791Z,40.19
2023-03-14T16:05:48.187Z,40.10
2023-03-14T16:08:16.142Z,39.94
2023-03-14T16:10:46.427Z,40.49
2023-03-14T16:13:14.858Z,40.63
2023-03-14T16:15:43.178Z,40.79
2023-03-14T16:18:21.047Z,41.03
2023-03-14T16:20:58.031Z,41.01
2023-03-14T16:23:27.246Z,41.53
2023-03-14T16:25:55.213Z,41.60
2023-03-14T16:28:23.110Z,41.55
2023-03-14T16:30:50.852Z,42.05
2023-03-14T16:33:19.761Z,42.26
2023-03-14T16:35:57.974Z,42.50
2023-03-14T16:38:29.514Z,42.42
2023-03-14T16:41:04.026Z,42.93
2023-03-14T16:43:34.374Z,43.16
2023-03-14T16:46:02.798Z,43.28
2023-03-14T16:48:39.681Z,44.18
2023-03-14T16:51:08.668Z,44.19
2023-03-14T16:53:36.979Z,44.68
2023-03-14T16:56:07.344Z,45.36
2023-03-14T16:58:35.928Z,45.48
2023-03-14T17:01:11.687Z,46.03
2023-03-14T17:03:44.052Z,46.10
2023-03-14T17:06:16.000Z,45.70
2023-03-14T17:08:44.494Z,46.14
2023-03-14T17:11:12.213Z,46.06
2023-03-14T17:13:40.180Z,46.19
2023-03-14T17:16:09.971Z,46.20
2023-03-14T17:18:37.748Z,46.17
2023-03-14T17:21:10.407Z,45.95
2023-03-14T17:23:41.278Z,46.98
2023-03-14T17:26:09.179Z,46.61
2023-03-14T17:28:37.923Z,46.72
2023-03-14T17:31:16.844Z,46.51
2023-03-14T17:33:53.621Z,46.64
2023-03-14T17:36:25.423Z,46.94
2023-03-14T17:38:56.392Z,46.88
2023-03-14T17:41:26.172Z,46.80
2023-03-14T17:43:55.423Z,46.81
2023-03-14T17:46:26.980Z,46.96
2023-03-14T17:48:55.842Z,46.72
2023-03-14T17:51:28.414Z,47.23
2023-03-14T17:53:56.973Z,46.75
2023-03-14T17:56:26.027Z,46.87
2023-03-14T17:58:59.705Z,46.54
2023-03-14T18:01:28.949Z,47.32
2023-03-14T18:04:02.376Z,47.18
2023-03-14T18:06:31.858Z,47.24
2023-03-14T18:09:01.818Z,47.56
2023-03-14T18:11:32.989Z,48.58
2023-03-14T18:14:07.953Z,48.08
2023-03-14T18:16:42.146Z,47.66
2023-03-14T18:19:10.386Z,47.64
2023-03-14T18:21:40.782Z,48.16
2023-03-14T18:24:11.458Z,48.21
2023-03-14T18:26:40.741Z,47.81
2023-03-14T18:29:08.594Z,47.71
2023-03-14T18:31:38.158Z,47.46
2023-03-14T18:34:06.756Z,48.35
2023-03-14T18:36:36.938Z,48.36
2023-03-14T18:39:07.578Z,48.01
2023-03-14T18:41:35.690Z,48.03
2023-03-14T18:44:04.030Z,48.29
2023-03-14T18:46:32.461Z,48.57
2023-03-14T18:49:04.971Z,47.65
2023-03-14T18:51:35.040Z,48.28
2023-03-14T18:54:08.724Z,47.97
2023-03-14T18:56:39.060Z,48.22
2023-03-14T18:59:07.519Z,48.33
2023-03-14T19:01:37.413Z,48.38
2023-03-14T19:04:05.470Z,49.22
2023-03-14T19:06:36.447Z,48.83
2023-03-14T19:09:06.456Z,49.26
2023-03-14T19:11:35.064Z,49.17
2023-03-14T19:14:05.860Z,49.36
2023-03-14T19:16:34.930Z,49.74
2023-03-14T19:19:03.939Z,50.38
2023-03-14T19:21:34.913Z,50.46
2023-03-14T19:24:05.441Z,50.52
2023-03-14T19:26:35.650Z,50.50
2023-03-14T19:29:04.987Z,50.56
2023-03-14T19:31:35.112Z,50.88
2023-03-14T19:34:04.401Z,51.31
2023-03-14T19:36:34.823Z,52.06
2023-03-14T19:39:03.158Z,52.70
2023-03-14T19:41:32.034Z,54.16
2023-03-14T19:44:01.419Z,54.68
2023-03-14T19:46:33.597Z,55.35
2023-03-14T19:49:02.851Z,54.99
2023-03-14T19:51:36.117Z,55.22
2023-03-14T19:54:06.155Z,55.00
2023-03-14T19:56:35.248Z,54.57
2023-03-14T19:59:05.230Z,54.71
2023-03-14T20:01:35.636Z,54.89
2023-03-14T20:04:06.865Z,55.12
2023-03-14T20:06:35.224Z,55.53
2023-03-14T20:09:06.107Z,55.38
2023-03-14T20:11:44.030Z,55.44
2023-03-14T20:14:14.927Z,55.87
2023-03-14T20:16:44.274Z,55.41
2023-03-14T20:19:15.644Z,55.54
2023-03-14T20:21:43.753Z,55.67
2023-03-14T20:24:11.958Z,55.63
2023-03-14T20:26:43.126Z,55.45
2023-03-14T20:29:11.588Z,55.11
2023-03-14T20:31:40.542Z,55.30
2023-03-14T20:34:08.442Z,55.54
2023-03-14T20:36:38.397Z,55.11
2023-03-14T20:39:06.234Z,55.54
2023-03-14T20:41:44.261Z,55.70
2023-03-14T20:44:14.581Z,55.47
2023-03-14T20:46:42.955Z,55.84
2023-03-14T20:49:10.981Z,55.97
2023-03-14T20:51:39.881Z,56.42
2023-03-14T20:54:14.270Z,55.96
2023-03-14T20:56:46.444Z,56.29
2023-03-14T20:59:14.990Z,55.99
2023-03-14T21:04:34.173Z,55.56
2023-03-14T21:07:03.381Z,55.63
2023-03-14T21:09:32.132Z,54.87
2023-03-14T21:12:00.633Z,55.11
2023-03-14T21:14:28.991Z,56.18
2023-03-14T21:16:58.882Z,55.97
2023-03-14T21:19:34.232Z,55.29
2023-03-14T21:22:04.171Z,55.97
2023-03-14T21:24:32.276Z,57.29
2023-03-14T21:27:00.849Z,57.09
2023-03-14T21:29:29.752Z,56.10
2023-03-14T21:32:01.575Z,56.29
2023-03-14T21:34:30.967Z,56.09
2023-03-14T21:36:59.301Z,55.93
2023-03-14T21:39:27.506Z,56.70
2023-03-14T21:41:56.499Z,56.73
2023-03-14T21:44:24.264Z,57.13
2023-03-14T21:46:52.109Z,56.70
2023-03-14T21:49:20.696Z,57.36
2023-03-14T21:51:49.146Z,58.06
2023-03-14T21:54:17.005Z,58.27
2023-03-14T21:56:45.269Z,58.14
2023-03-14T21:59:15.028Z,57.32
2023-03-14T22:01:44.742Z,57.84
2023-03-14T22:04:13.400Z,57.47
2023-03-14T22:06:42.065Z,57.44
2023-03-14T22:09:10.293Z,57.63
2023-03-14T22:11:43.694Z,58.41
2023-03-14T22:14:11.426Z,58.59
2023-03-14T22:16:39.726Z,58.92
2023-03-14T22:19:13.884Z,59.05
2023-03-14T22:21:42.949Z,58.86
2023-03-14T22:24:12.386Z,59.28
2023-03-14T22:26:40.765Z,60.09
2023-03-14T22:29:08.795Z,59.36
2023-03-14T22:31:38.894Z,59.44
2023-03-14T22:34:07.331Z,59.79
2023-03-14T22:36:37.723Z,59.67
2023-03-14T22:39:07.372Z,59.36
2023-03-14T22:41:37.366Z,59.63
2023-03-14T22:44:09.310Z,60.76
2023-03-14T22:46:38.605Z,59.83
2023-03-14T22:49:08.279Z,60.01
2023-03-14T22:51:37.703Z,60.65
2023-03-14T22:54:05.624Z,60.85
2023-03-14T22:56:35.001Z,60.93
2023-03-14T22:59:03.548Z,60.56
2023-03-14T23:01:33.907Z,59.90
2023-03-14T23:04:02.631Z,59.71
2023-03-14T23:06:30.620Z,60.53
2023-03-14T23:09:02.324Z,59.79
2023-03-14T23:11:30.666Z,61.14
2023-03-14T23:14:00.629Z,60.96
2023-03-14T23:16:39.613Z,60.41
2023-03-14T23:19:11.030Z,60.14
2023-03-14T23:21:41.781Z,61.96
2023-03-14T23:24:10.526Z,62.00
2023-03-14T23:26:39.102Z,62.42
2023-03-14T23:29:08.452Z,62.49
2023-03-14T23:31:36.822Z,62.22
2023-03-14T23:34:05.106Z,61.75
2023-03-14T23:36:37.391Z,61.52
2023-03-14T23:39:06.109Z,61.41
2023-03-14T23:41:33.884Z,62.04
2023-03-14T23:44:02.675Z,62.23
2023-03-14T23:46:38.105Z,60.61
2023-03-14T23:49:05.948Z,60.86
2023-03-14T23:51:34.481Z,61.00
2023-03-14T23:54:02.245Z,59.89
2023-03-14T23:56:31.094Z,60.67
2023-03-14T23:58:59.826Z,60.54
